sensor_id;sensor_type;location;lat;lon;timestamp;temperature;humidity
25352;DHT22;13304;48.464;8.712;2024-03-06T00:02:09;9.10;86.10
25352;DHT22;13304;48.464;8.712;2024-03-06T00:04:34;9.10;86.30
25352;DHT22;13304;48.464;8.712;2024-03-06T00:07:00;9.10;86.30
25352;DHT22;13304;48.464;8.712;2024-03-06T00:09:26;9.10;86.30
25352;DHT22;13304;48.464;8.712;2024-03-06T00:11:53;9.10;86.30
25352;DHT22;13304;48.464;8.712;2024-03-06T00:14:19;9.10;86.30
25352;DHT22;13304;48.464;8.712;2024-03-06T00:16:47;9.10;86.10
25352;DHT22;13304;48.464;8.712;2024-03-06T00:19:13;9.10;86.10
25352;DHT22;13304;48.464;8.712;2024-03-06T00:21:39;9.10;85.90
25352;DHT22;13304;48.464;8.712;2024-03-06T00:24:05;9.10;85.90
25352;DHT22;13304;48.464;8.712;2024-03-06T00:26:31;9.10;85.90
25352;DHT22;13304;48.464;8.712;2024-03-06T00:28:57;9.00;85.80
25352;DHT22;13304;48.464;8.712;2024-03-06T00:31:23;9.00;85.80
25352;DHT22;13304;48.464;8.712;2024-03-06T00:33:48;9.00;85.70
25352;DHT22;13304;48.464;8.712;2024-03-06T00:36:14;9.00;85.60
25352;DHT22;13304;48.464;8.712;2024-03-06T00:38:39;9.00;85.60
25352;DHT22;13304;48.464;8.712;2024-03-06T00:41:06;9.00;85.50
25352;DHT22;13304;48.464;8.712;2024-03-06T00:43:34;9.00;85.60
25352;DHT22;13304;48.464;8.712;2024-03-06T00:45:59;9.00;85.60
25352;DHT22;13304;48.464;8.712;2024-03-06T00:48:25;9.00;85.70
25352;DHT22;13304;48.464;8.712;2024-03-06T00:50:51;9.00;85.60
25352;DHT22;13304;48.464;8.712;2024-03-06T00:53:17;8.90;85.60
25352;DHT22;13304;48.464;8.712;2024-03-06T00:55:42;8.90;85.50
25352;DHT22;13304;48.464;8.712;2024-03-06T00:58:08;8.90;85.50
25352;DHT22;13304;48.464;8.712;2024-03-06T01:00:34;8.90;85.60
25352;DHT22;13304;48.464;8.712;2024-03-06T01:02:59;8.90;85.60
25352;DHT22;13304;48.464;8.712;2024-03-06T01:05:25;8.90;85.60
25352;DHT22;13304;48.464;8.712;2024-03-06T01:07:50;8.90;85.70
25352;DHT22;13304;48.464;8.712;2024-03-06T01:10:16;8.90;85.90
25352;DHT22;13304;48.464;8.712;2024-03-06T01:12:42;8.90;86.00
25352;DHT22;13304;48.464;8.712;2024-03-06T01:15:11;8.90;86.00
25352;DHT22;13304;48.464;8.712;2024-03-06T01:17:37;8.90;86.90
25352;DHT22;13304;48.464;8.712;2024-03-06T01:20:03;8.90;86.10
25352;DHT22;13304;48.464;8.712;2024-03-06T01:22:34;8.90;86.10
25352;DHT22;13304;48.464;8.712;2024-03-06T01:25:01;9.00;86.20
25352;DHT22;13304;48.464;8.712;2024-03-06T01:27:27;9.00;86.10
25352;DHT22;13304;48.464;8.712;2024-03-06T01:29:53;9.00;86.00
25352;DHT22;13304;48.464;8.712;2024-03-06T01:32:21;9.00;85.90
25352;DHT22;13304;48.464;8.712;2024-03-06T01:34:47;9.00;85.80
25352;DHT22;13304;48.464;8.712;2024-03-06T01:37:12;9.00;85.80
25352;DHT22;13304;48.464;8.712;2024-03-06T01:39:38;9.00;85.70
25352;DHT22;13304;48.464;8.712;2024-03-06T01:42:04;9.00;85.60
25352;DHT22;13304;48.464;8.712;2024-03-06T01:44:30;9.00;85.50
25352;DHT22;13304;48.464;8.712;2024-03-06T01:46:55;9.00;85.40
25352;DHT22;13304;48.464;8.712;2024-03-06T01:49:22;9.00;85.50
25352;DHT22;13304;48.464;8.712;2024-03-06T01:51:51;9.00;85.50
25352;DHT22;13304;48.464;8.712;2024-03-06T01:54:18;9.00;85.50
25352;DHT22;13304;48.464;8.712;2024-03-06T01:56:48;9.00;85.50
25352;DHT22;13304;48.464;8.712;2024-03-06T01:59:16;9.00;85.50
25352;DHT22;13304;48.464;8.712;2024-03-06T02:01:43;9.00;85.40
25352;DHT22;13304;48.464;8.712;2024-03-06T02:04:09;9.00;85.40
25352;DHT22;13304;48.464;8.712;2024-03-06T02:06:41;9.00;85.50
25352;DHT22;13304;48.464;8.712;2024-03-06T02:09:07;8.90;85.50
25352;DHT22;13304;48.464;8.712;2024-03-06T02:11:37;9.00;85.40
25352;DHT22;13304;48.464;8.712;2024-03-06T02:14:03;9.00;85.50
25352;DHT22;13304;48.464;8.712;2024-03-06T02:16:29;9.00;85.50
25352;DHT22;13304;48.464;8.712;2024-03-06T02:18:56;9.00;85.50
25352;DHT22;13304;48.464;8.712;2024-03-06T02:21:23;9.00;85.50
25352;DHT22;13304;48.464;8.712;2024-03-06T02:23:49;8.90;85.40
25352;DHT22;13304;48.464;8.712;2024-03-06T02:26:20;8.90;85.60
25352;DHT22;13304;48.464;8.712;2024-03-06T02:28:50;8.90;85.40
25352;DHT22;13304;48.464;8.712;2024-03-06T02:31:20;8.90;85.40
25352;DHT22;13304;48.464;8.712;2024-03-06T02:33:46;8.90;85.50
25352;DHT22;13304;48.464;8.712;2024-03-06T02:36:16;8.90;85.50
25352;DHT22;13304;48.464;8.712;2024-03-06T02:38:43;8.90;85.50
25352;DHT22;13304;48.464;8.712;2024-03-06T02:41:12;8.90;85.50
25352;DHT22;13304;48.464;8.712;2024-03-06T02:43:39;8.90;85.40
25352;DHT22;13304;48.464;8.712;2024-03-06T02:46:05;8.90;85.40
25352;DHT22;13304;48.464;8.712;2024-03-06T02:48:31;8.90;86.10
25352;DHT22;13304;48.464;8.712;2024-03-06T02:50:57;8.90;85.30
25352;DHT22;13304;48.464;8.712;2024-03-06T02:53:23;8.90;85.30
25352;DHT22;13304;48.464;8.712;2024-03-06T02:55:49;8.90;85.30
25352;DHT22;13304;48.464;8.712;2024-03-06T02:58:15;8.90;85.30
25352;DHT22;13304;48.464;8.712;2024-03-06T03:00:43;8.80;85.30
25352;DHT22;13304;48.464;8.712;2024-03-06T03:03:10;8.90;85.30
25352;DHT22;13304;48.464;8.712;2024-03-06T03:05:37;8.90;85.30
25352;DHT22;13304;48.464;8.712;2024-03-06T03:08:03;8.80;86.00
25352;DHT22;13304;48.464;8.712;2024-03-06T03:10:30;8.90;85.30
25352;DHT22;13304;48.464;8.712;2024-03-06T03:12:56;8.80;85.10
25352;DHT22;13304;48.464;8.712;2024-03-06T03:15:22;8.80;85.00
25352;DHT22;13304;48.464;8.712;2024-03-06T03:17:47;8.80;84.90
25352;DHT22;13304;48.464;8.712;2024-03-06T03:20:13;8.80;84.90
25352;DHT22;13304;48.464;8.712;2024-03-06T03:22:39;8.70;85.00
25352;DHT22;13304;48.464;8.712;2024-03-06T03:25:09;8.70;85.10
25352;DHT22;13304;48.464;8.712;2024-03-06T03:27:37;8.70;85.10
25352;DHT22;13304;48.464;8.712;2024-03-06T03:30:08;8.70;85.20
25352;DHT22;13304;48.464;8.712;2024-03-06T03:32:34;8.70;85.40
25352;DHT22;13304;48.464;8.712;2024-03-06T03:35:00;8.70;85.50
25352;DHT22;13304;48.464;8.712;2024-03-06T03:37:26;8.70;85.60
25352;DHT22;13304;48.464;8.712;2024-03-06T03:39:52;8.70;85.80
25352;DHT22;13304;48.464;8.712;2024-03-06T03:42:17;8.70;85.80
25352;DHT22;13304;48.464;8.712;2024-03-06T03:44:44;8.70;85.90
25352;DHT22;13304;48.464;8.712;2024-03-06T03:47:10;8.70;86.00
25352;DHT22;13304;48.464;8.712;2024-03-06T03:49:36;8.70;86.20
25352;DHT22;13304;48.464;8.712;2024-03-06T03:52:01;8.70;86.20
25352;DHT22;13304;48.464;8.712;2024-03-06T03:54:31;8.70;86.30
25352;DHT22;13304;48.464;8.712;2024-03-06T03:56:57;8.70;86.30
25352;DHT22;13304;48.464;8.712;2024-03-06T03:59:24;8.70;86.30
25352;DHT22;13304;48.464;8.712;2024-03-06T04:01:50;8.80;86.30
25352;DHT22;13304;48.464;8.712;2024-03-06T04:04:16;8.80;86.30
25352;DHT22;13304;48.464;8.712;2024-03-06T04:06:41;8.80;86.30
25352;DHT22;13304;48.464;8.712;2024-03-06T04:09:07;8.90;86.30
25352;DHT22;13304;48.464;8.712;2024-03-06T04:11:36;8.90;86.30
25352;DHT22;13304;48.464;8.712;2024-03-06T04:14:06;8.90;86.30
25352;DHT22;13304;48.464;8.712;2024-03-06T04:16:35;8.90;86.40
25352;DHT22;13304;48.464;8.712;2024-03-06T04:19:01;9.00;86.40
25352;DHT22;13304;48.464;8.712;2024-03-06T04:21:27;9.00;86.30
25352;DHT22;13304;48.464;8.712;2024-03-06T04:23:52;8.90;86.30
25352;DHT22;13304;48.464;8.712;2024-03-06T04:26:21;9.00;86.40
25352;DHT22;13304;48.464;8.712;2024-03-06T04:28:47;9.00;86.30
25352;DHT22;13304;48.464;8.712;2024-03-06T04:31:15;9.00;86.40
25352;DHT22;13304;48.464;8.712;2024-03-06T04:33:41;9.00;86.40
25352;DHT22;13304;48.464;8.712;2024-03-06T04:36:10;9.00;86.40
25352;DHT22;13304;48.464;8.712;2024-03-06T04:38:36;9.00;86.40
25352;DHT22;13304;48.464;8.712;2024-03-06T04:41:02;9.10;86.40
25352;DHT22;13304;48.464;8.712;2024-03-06T04:43:27;9.10;86.40
25352;DHT22;13304;48.464;8.712;2024-03-06T04:45:53;9.10;86.40
25352;DHT22;13304;48.464;8.712;2024-03-06T04:48:19;9.10;86.10
25352;DHT22;13304;48.464;8.712;2024-03-06T04:50:44;9.10;86.10
25352;DHT22;13304;48.464;8.712;2024-03-06T04:53:10;9.10;86.00
25352;DHT22;13304;48.464;8.712;2024-03-06T04:55:36;9.00;85.90
25352;DHT22;13304;48.464;8.712;2024-03-06T04:58:02;9.00;86.10
25352;DHT22;13304;48.464;8.712;2024-03-06T05:00:29;9.00;86.20
25352;DHT22;13304;48.464;8.712;2024-03-06T05:02:54;9.00;86.40
25352;DHT22;13304;48.464;8.712;2024-03-06T05:05:21;9.00;86.40
25352;DHT22;13304;48.464;8.712;2024-03-06T05:07:48;9.00;86.60
25352;DHT22;13304;48.464;8.712;2024-03-06T05:10:14;9.00;86.80
25352;DHT22;13304;48.464;8.712;2024-03-06T05:12:43;9.00;86.80
25352;DHT22;13304;48.464;8.712;2024-03-06T05:15:09;9.00;86.90
25352;DHT22;13304;48.464;8.712;2024-03-06T05:17:35;9.00;86.90
25352;DHT22;13304;48.464;8.712;2024-03-06T05:20:00;9.00;87.00
25352;DHT22;13304;48.464;8.712;2024-03-06T05:22:26;9.00;87.10
25352;DHT22;13304;48.464;8.712;2024-03-06T05:24:52;9.00;87.10
25352;DHT22;13304;48.464;8.712;2024-03-06T05:27:18;9.00;87.00
25352;DHT22;13304;48.464;8.712;2024-03-06T05:29:44;9.00;86.90
25352;DHT22;13304;48.464;8.712;2024-03-06T05:32:10;9.00;86.90
25352;DHT22;13304;48.464;8.712;2024-03-06T05:34:36;9.00;86.90
25352;DHT22;13304;48.464;8.712;2024-03-06T05:37:01;9.00;86.70
25352;DHT22;13304;48.464;8.712;2024-03-06T05:39:30;9.00;86.50
25352;DHT22;13304;48.464;8.712;2024-03-06T05:41:59;9.00;86.50
25352;DHT22;13304;48.464;8.712;2024-03-06T05:44:25;9.00;86.60
25352;DHT22;13304;48.464;8.712;2024-03-06T05:46:52;8.90;86.60
25352;DHT22;13304;48.464;8.712;2024-03-06T05:49:20;8.90;86.60
25352;DHT22;13304;48.464;8.712;2024-03-06T05:51:45;8.90;86.70
25352;DHT22;13304;48.464;8.712;2024-03-06T05:54:11;8.90;86.80
25352;DHT22;13304;48.464;8.712;2024-03-06T05:56:36;8.90;87.00
25352;DHT22;13304;48.464;8.712;2024-03-06T05:59:04;8.90;87.10
25352;DHT22;13304;48.464;8.712;2024-03-06T06:01:36;8.90;87.20
25352;DHT22;13304;48.464;8.712;2024-03-06T06:04:01;8.80;87.30
25352;DHT22;13304;48.464;8.712;2024-03-06T06:06:27;8.80;87.20
25352;DHT22;13304;48.464;8.712;2024-03-06T06:08:54;8.80;87.20
25352;DHT22;13304;48.464;8.712;2024-03-06T06:11:19;8.90;87.20
25352;DHT22;13304;48.464;8.712;2024-03-06T06:13:45;8.90;87.30
25352;DHT22;13304;48.464;8.712;2024-03-06T06:16:11;8.90;87.40
25352;DHT22;13304;48.464;8.712;2024-03-06T06:18:37;8.90;87.40
25352;DHT22;13304;48.464;8.712;2024-03-06T06:21:05;8.90;87.40
25352;DHT22;13304;48.464;8.712;2024-03-06T06:23:33;8.90;87.30
25352;DHT22;13304;48.464;8.712;2024-03-06T06:25:58;8.90;88.20
25352;DHT22;13304;48.464;8.712;2024-03-06T06:28:24;8.90;87.40
25352;DHT22;13304;48.464;8.712;2024-03-06T06:30:50;8.90;87.50
25352;DHT22;13304;48.464;8.712;2024-03-06T06:33:21;8.90;87.50
25352;DHT22;13304;48.464;8.712;2024-03-06T06:35:47;9.00;87.70
25352;DHT22;13304;48.464;8.712;2024-03-06T06:38:13;8.90;87.70
25352;DHT22;13304;48.464;8.712;2024-03-06T06:40:38;9.00;87.70
25352;DHT22;13304;48.464;8.712;2024-03-06T06:43:06;9.00;87.70
25352;DHT22;13304;48.464;8.712;2024-03-06T06:45:31;9.00;87.70
25352;DHT22;13304;48.464;8.712;2024-03-06T06:47:57;9.00;87.70
25352;DHT22;13304;48.464;8.712;2024-03-06T06:50:23;9.00;87.70
25352;DHT22;13304;48.464;8.712;2024-03-06T06:52:51;9.00;87.90
25352;DHT22;13304;48.464;8.712;2024-03-06T06:55:17;9.00;87.80
25352;DHT22;13304;48.464;8.712;2024-03-06T06:57:43;9.00;87.60
25352;DHT22;13304;48.464;8.712;2024-03-06T07:00:09;9.00;87.60
25352;DHT22;13304;48.464;8.712;2024-03-06T07:02:39;9.00;87.70
25352;DHT22;13304;48.464;8.712;2024-03-06T07:05:07;9.00;87.70
25352;DHT22;13304;48.464;8.712;2024-03-06T07:07:34;9.10;87.80
25352;DHT22;13304;48.464;8.712;2024-03-06T07:10:00;9.10;87.80
25352;DHT22;13304;48.464;8.712;2024-03-06T07:12:26;9.10;87.70
25352;DHT22;13304;48.464;8.712;2024-03-06T07:14:52;9.10;88.20
25352;DHT22;13304;48.464;8.712;2024-03-06T07:17:17;9.10;87.20
25352;DHT22;13304;48.464;8.712;2024-03-06T07:19:43;9.10;87.20
25352;DHT22;13304;48.464;8.712;2024-03-06T07:22:09;9.10;87.10
25352;DHT22;13304;48.464;8.712;2024-03-06T07:24:34;9.10;87.30
25352;DHT22;13304;48.464;8.712;2024-03-06T07:27:00;9.10;87.20
25352;DHT22;13304;48.464;8.712;2024-03-06T07:29:28;9.10;87.10
25352;DHT22;13304;48.464;8.712;2024-03-06T07:31:54;9.10;87.10
25352;DHT22;13304;48.464;8.712;2024-03-06T07:34:20;9.10;87.10
25352;DHT22;13304;48.464;8.712;2024-03-06T07:36:47;9.20;87.30
25352;DHT22;13304;48.464;8.712;2024-03-06T07:39:16;9.20;87.40
25352;DHT22;13304;48.464;8.712;2024-03-06T07:41:42;9.20;87.30
25352;DHT22;13304;48.464;8.712;2024-03-06T07:44:08;9.20;87.30
25352;DHT22;13304;48.464;8.712;2024-03-06T07:46:37;9.20;87.30
25352;DHT22;13304;48.464;8.712;2024-03-06T07:49:03;9.20;87.50
25352;DHT22;13304;48.464;8.712;2024-03-06T07:51:33;9.30;87.60
25352;DHT22;13304;48.464;8.712;2024-03-06T07:53:59;9.30;88.40
25352;DHT22;13304;48.464;8.712;2024-03-06T07:56:26;9.30;87.50
25352;DHT22;13304;48.464;8.712;2024-03-06T07:58:52;9.30;87.40
25352;DHT22;13304;48.464;8.712;2024-03-06T08:01:19;9.30;87.20
25352;DHT22;13304;48.464;8.712;2024-03-06T08:03:45;9.30;87.00
25352;DHT22;13304;48.464;8.712;2024-03-06T08:06:13;9.30;86.90
25352;DHT22;13304;48.464;8.712;2024-03-06T08:08:43;9.40;86.90
25352;DHT22;13304;48.464;8.712;2024-03-06T08:11:12;9.30;86.70
25352;DHT22;13304;48.464;8.712;2024-03-06T08:13:39;9.40;87.60
25352;DHT22;13304;48.464;8.712;2024-03-06T08:16:08;9.40;86.80
25352;DHT22;13304;48.464;8.712;2024-03-06T08:18:34;9.40;86.70
25352;DHT22;13304;48.464;8.712;2024-03-06T08:21:01;9.40;86.70
25352;DHT22;13304;48.464;8.712;2024-03-06T08:23:27;9.40;86.60
25352;DHT22;13304;48.464;8.712;2024-03-06T08:25:52;9.40;86.40
25352;DHT22;13304;48.464;8.712;2024-03-06T08:28:18;9.40;86.40
25352;DHT22;13304;48.464;8.712;2024-03-06T08:30:44;9.40;86.30
25352;DHT22;13304;48.464;8.712;2024-03-06T08:33:10;9.40;86.40
25352;DHT22;13304;48.464;8.712;2024-03-06T08:35:36;9.40;86.50
25352;DHT22;13304;48.464;8.712;2024-03-06T08:38:02;9.30;86.30
25352;DHT22;13304;48.464;8.712;2024-03-06T08:40:27;9.40;86.50
25352;DHT22;13304;48.464;8.712;2024-03-06T08:42:53;9.40;86.50
25352;DHT22;13304;48.464;8.712;2024-03-06T08:45:19;9.40;86.70
25352;DHT22;13304;48.464;8.712;2024-03-06T08:47:46;9.40;86.70
25352;DHT22;13304;48.464;8.712;2024-03-06T08:50:12;9.40;86.70
25352;DHT22;13304;48.464;8.712;2024-03-06T08:52:38;9.40;87.00
25352;DHT22;13304;48.464;8.712;2024-03-06T08:55:05;9.40;87.40
25352;DHT22;13304;48.464;8.712;2024-03-06T08:57:34;9.40;87.50
25352;DHT22;13304;48.464;8.712;2024-03-06T09:00:00;9.30;87.40
25352;DHT22;13304;48.464;8.712;2024-03-06T09:02:25;9.40;87.50
25352;DHT22;13304;48.464;8.712;2024-03-06T09:04:52;9.50;87.80
25352;DHT22;13304;48.464;8.712;2024-03-06T09:07:18;9.40;87.90
25352;DHT22;13304;48.464;8.712;2024-03-06T09:09:44;9.40;88.10
25352;DHT22;13304;48.464;8.712;2024-03-06T09:12:10;9.50;88.00
25352;DHT22;13304;48.464;8.712;2024-03-06T09:14:39;9.40;87.70
25352;DHT22;13304;48.464;8.712;2024-03-06T09:17:06;9.40;87.90
25352;DHT22;13304;48.464;8.712;2024-03-06T09:19:35;9.50;87.30
25352;DHT22;13304;48.464;8.712;2024-03-06T09:22:01;9.50;87.60
25352;DHT22;13304;48.464;8.712;2024-03-06T09:24:28;9.50;87.80
25352;DHT22;13304;48.464;8.712;2024-03-06T09:26:54;9.60;87.60
25352;DHT22;13304;48.464;8.712;2024-03-06T09:29:20;9.60;88.00
25352;DHT22;13304;48.464;8.712;2024-03-06T09:31:47;9.60;87.80
25352;DHT22;13304;48.464;8.712;2024-03-06T09:34:14;9.70;87.60
25352;DHT22;13304;48.464;8.712;2024-03-06T09:36:41;9.70;87.40
25352;DHT22;13304;48.464;8.712;2024-03-06T09:39:11;9.70;87.30
25352;DHT22;13304;48.464;8.712;2024-03-06T09:41:36;9.70;86.50
25352;DHT22;13304;48.464;8.712;2024-03-06T09:44:04;9.70;86.20
25352;DHT22;13304;48.464;8.712;2024-03-06T09:46:30;9.70;85.90
25352;DHT22;13304;48.464;8.712;2024-03-06T09:48:56;9.80;85.90
25352;DHT22;13304;48.464;8.712;2024-03-06T09:51:22;9.70;86.00
25352;DHT22;13304;48.464;8.712;2024-03-06T09:53:48;9.70;85.80
25352;DHT22;13304;48.464;8.712;2024-03-06T09:56:17;9.70;85.90
25352;DHT22;13304;48.464;8.712;2024-03-06T09:58:45;9.70;86.20
25352;DHT22;13304;48.464;8.712;2024-03-06T10:01:12;9.70;86.60
25352;DHT22;13304;48.464;8.712;2024-03-06T10:03:38;9.70;86.80
25352;DHT22;13304;48.464;8.712;2024-03-06T10:06:07;9.70;87.10
25352;DHT22;13304;48.464;8.712;2024-03-06T10:08:33;9.80;86.80
25352;DHT22;13304;48.464;8.712;2024-03-06T10:10:59;9.80;86.10
25352;DHT22;13304;48.464;8.712;2024-03-06T10:13:25;9.70;86.30
25352;DHT22;13304;48.464;8.712;2024-03-06T10:16:04;9.80;86.60
25352;DHT22;13304;48.464;8.712;2024-03-06T10:18:34;9.80;86.80
25352;DHT22;13304;48.464;8.712;2024-03-06T10:21:00;9.80;87.10
25352;DHT22;13304;48.464;8.712;2024-03-06T10:23:29;9.80;87.30
25352;DHT22;13304;48.464;8.712;2024-03-06T10:25:55;9.90;88.10
25352;DHT22;13304;48.464;8.712;2024-03-06T10:28:22;9.90;87.80
25352;DHT22;13304;48.464;8.712;2024-03-06T10:30:50;9.90;87.70
25352;DHT22;13304;48.464;8.712;2024-03-06T10:33:17;10.00;87.90
25352;DHT22;13304;48.464;8.712;2024-03-06T10:35:47;10.00;87.90
25352;DHT22;13304;48.464;8.712;2024-03-06T10:38:20;10.00;87.70
25352;DHT22;13304;48.464;8.712;2024-03-06T10:40:46;10.10;86.70
25352;DHT22;13304;48.464;8.712;2024-03-06T10:43:12;10.10;87.00
25352;DHT22;13304;48.464;8.712;2024-03-06T10:45:49;10.10;87.60
25352;DHT22;13304;48.464;8.712;2024-03-06T10:48:16;10.10;87.00
25352;DHT22;13304;48.464;8.712;2024-03-06T10:50:44;10.10;87.50
25352;DHT22;13304;48.464;8.712;2024-03-06T10:53:12;10.10;87.60
25352;DHT22;13304;48.464;8.712;2024-03-06T10:55:38;10.20;87.90
25352;DHT22;13304;48.464;8.712;2024-03-06T10:58:08;10.20;87.90
25352;DHT22;13304;48.464;8.712;2024-03-06T11:00:37;10.20;87.90
25352;DHT22;13304;48.464;8.712;2024-03-06T11:03:06;10.10;88.00
25352;DHT22;13304;48.464;8.712;2024-03-06T11:05:35;10.20;88.10
25352;DHT22;13304;48.464;8.712;2024-03-06T11:08:02;10.20;87.80
25352;DHT22;13304;48.464;8.712;2024-03-06T11:10:35;10.30;88.00
25352;DHT22;13304;48.464;8.712;2024-03-06T11:13:02;10.30;88.10
25352;DHT22;13304;48.464;8.712;2024-03-06T11:15:31;10.30;88.40
25352;DHT22;13304;48.464;8.712;2024-03-06T11:17:57;10.30;88.80
25352;DHT22;13304;48.464;8.712;2024-03-06T11:20:23;10.30;88.90
25352;DHT22;13304;48.464;8.712;2024-03-06T11:28:19;10.30;88.50
25352;DHT22;13304;48.464;8.712;2024-03-06T11:30:46;10.40;88.70
25352;DHT22;13304;48.464;8.712;2024-03-06T11:33:14;10.40;88.80
25352;DHT22;13304;48.464;8.712;2024-03-06T11:35:42;10.40;89.00
25352;DHT22;13304;48.464;8.712;2024-03-06T11:38:17;10.40;88.80
25352;DHT22;13304;48.464;8.712;2024-03-06T11:40:44;10.40;88.70
25352;DHT22;13304;48.464;8.712;2024-03-06T11:43:25;10.50;89.00
25352;DHT22;13304;48.464;8.712;2024-03-06T11:45:52;10.40;88.80
25352;DHT22;13304;48.464;8.712;2024-03-06T11:48:18;10.50;88.80
25352;DHT22;13304;48.464;8.712;2024-03-06T11:50:47;10.50;88.60
25352;DHT22;13304;48.464;8.712;2024-03-06T11:53:14;10.50;88.30
25352;DHT22;13304;48.464;8.712;2024-03-06T11:55:40;10.50;88.20
25352;DHT22;13304;48.464;8.712;2024-03-06T11:58:05;10.50;88.20
25352;DHT22;13304;48.464;8.712;2024-03-06T12:00:33;10.50;88.40
25352;DHT22;13304;48.464;8.712;2024-03-06T12:02:59;10.50;88.50
25352;DHT22;13304;48.464;8.712;2024-03-06T12:05:24;10.40;88.30
25352;DHT22;13304;48.464;8.712;2024-03-06T12:07:52;10.40;88.50
25352;DHT22;13304;48.464;8.712;2024-03-06T12:10:18;10.40;88.60
25352;DHT22;13304;48.464;8.712;2024-03-06T12:12:44;10.40;88.40
25352;DHT22;13304;48.464;8.712;2024-03-06T12:15:11;10.40;88.20
25352;DHT22;13304;48.464;8.712;2024-03-06T12:17:48;10.30;88.10
25352;DHT22;13304;48.464;8.712;2024-03-06T12:20:17;10.30;88.10
25352;DHT22;13304;48.464;8.712;2024-03-06T12:22:45;10.30;88.30
25352;DHT22;13304;48.464;8.712;2024-03-06T12:25:26;10.30;88.50
25352;DHT22;13304;48.464;8.712;2024-03-06T12:27:54;10.20;88.60
25352;DHT22;13304;48.464;8.712;2024-03-06T12:30:21;10.20;88.80
25352;DHT22;13304;48.464;8.712;2024-03-06T12:32:58;10.20;89.00
25352;DHT22;13304;48.464;8.712;2024-03-06T12:35:25;10.20;89.00
25352;DHT22;13304;48.464;8.712;2024-03-06T12:37:51;10.20;88.90
25352;DHT22;13304;48.464;8.712;2024-03-06T12:40:18;10.20;89.10
25352;DHT22;13304;48.464;8.712;2024-03-06T12:42:44;10.20;89.00
25352;DHT22;13304;48.464;8.712;2024-03-06T12:45:11;10.20;89.00
25352;DHT22;13304;48.464;8.712;2024-03-06T12:47:41;10.10;89.00
25352;DHT22;13304;48.464;8.712;2024-03-06T12:50:07;10.10;89.10
25352;DHT22;13304;48.464;8.712;2024-03-06T12:52:37;10.10;89.40
25352;DHT22;13304;48.464;8.712;2024-03-06T12:55:02;10.10;89.50
25352;DHT22;13304;48.464;8.712;2024-03-06T12:57:34;10.20;89.80
25352;DHT22;13304;48.464;8.712;2024-03-06T13:00:00;10.20;89.80
25352;DHT22;13304;48.464;8.712;2024-03-06T13:02:26;10.10;89.60
25352;DHT22;13304;48.464;8.712;2024-03-06T13:04:51;10.20;89.90
25352;DHT22;13304;48.464;8.712;2024-03-06T13:07:18;10.20;90.00
25352;DHT22;13304;48.464;8.712;2024-03-06T13:09:43;10.20;90.00
25352;DHT22;13304;48.464;8.712;2024-03-06T13:12:09;10.20;90.00
25352;DHT22;13304;48.464;8.712;2024-03-06T13:14:36;10.20;90.00
25352;DHT22;13304;48.464;8.712;2024-03-06T13:17:01;10.20;90.00
25352;DHT22;13304;48.464;8.712;2024-03-06T13:19:28;10.20;89.90
25352;DHT22;13304;48.464;8.712;2024-03-06T13:21:53;10.20;89.90
25352;DHT22;13304;48.464;8.712;2024-03-06T13:24:21;10.20;89.80
25352;DHT22;13304;48.464;8.712;2024-03-06T13:26:48;10.20;89.80
25352;DHT22;13304;48.464;8.712;2024-03-06T13:29:14;10.20;89.60
25352;DHT22;13304;48.464;8.712;2024-03-06T13:31:39;10.20;89.40
25352;DHT22;13304;48.464;8.712;2024-03-06T13:34:05;10.20;89.30
25352;DHT22;13304;48.464;8.712;2024-03-06T13:36:31;10.10;89.40
25352;DHT22;13304;48.464;8.712;2024-03-06T13:38:57;10.10;89.60
25352;DHT22;13304;48.464;8.712;2024-03-06T13:41:22;10.10;89.50
25352;DHT22;13304;48.464;8.712;2024-03-06T13:43:48;10.10;89.90
25352;DHT22;13304;48.464;8.712;2024-03-06T13:46:14;10.10;90.00
25352;DHT22;13304;48.464;8.712;2024-03-06T13:48:40;10.10;89.90
25352;DHT22;13304;48.464;8.712;2024-03-06T13:51:06;10.10;90.00
25352;DHT22;13304;48.464;8.712;2024-03-06T13:53:31;10.10;90.10
25352;DHT22;13304;48.464;8.712;2024-03-06T13:55:57;10.10;90.10
25352;DHT22;13304;48.464;8.712;2024-03-06T13:58:23;10.10;90.20
25352;DHT22;13304;48.464;8.712;2024-03-06T14:00:49;10.10;90.30
25352;DHT22;13304;48.464;8.712;2024-03-06T14:03:15;10.10;90.50
25352;DHT22;13304;48.464;8.712;2024-03-06T14:09:04;10.10;90.30
25352;DHT22;13304;48.464;8.712;2024-03-06T14:11:29;10.10;90.30
25352;DHT22;13304;48.464;8.712;2024-03-06T14:13:55;10.10;90.30
25352;DHT22;13304;48.464;8.712;2024-03-06T14:16:21;10.10;90.40
25352;DHT22;13304;48.464;8.712;2024-03-06T14:18:46;10.10;90.30
25352;DHT22;13304;48.464;8.712;2024-03-06T14:21:12;10.10;90.20
25352;DHT22;13304;48.464;8.712;2024-03-06T14:23:38;10.10;90.30
25352;DHT22;13304;48.464;8.712;2024-03-06T14:26:04;10.10;90.30
25352;DHT22;13304;48.464;8.712;2024-03-06T14:28:29;10.10;90.30
25352;DHT22;13304;48.464;8.712;2024-03-06T14:30:55;10.10;90.30
25352;DHT22;13304;48.464;8.712;2024-03-06T14:33:20;10.10;90.20
25352;DHT22;13304;48.464;8.712;2024-03-06T14:35:46;10.20;90.20
25352;DHT22;13304;48.464;8.712;2024-03-06T14:38:14;10.10;90.20
25352;DHT22;13304;48.464;8.712;2024-03-06T14:40:40;10.10;90.20
25352;DHT22;13304;48.464;8.712;2024-03-06T14:43:06;10.10;90.10
25352;DHT22;13304;48.464;8.712;2024-03-06T14:45:34;10.10;90.10
25352;DHT22;13304;48.464;8.712;2024-03-06T14:48:00;10.10;90.10
25352;DHT22;13304;48.464;8.712;2024-03-06T14:50:25;10.10;90.20
25352;DHT22;13304;48.464;8.712;2024-03-06T14:52:52;10.10;90.30
25352;DHT22;13304;48.464;8.712;2024-03-06T14:55:18;10.00;90.40
25352;DHT22;13304;48.464;8.712;2024-03-06T14:57:44;10.00;90.50
25352;DHT22;13304;48.464;8.712;2024-03-06T15:00:10;10.10;90.50
25352;DHT22;13304;48.464;8.712;2024-03-06T15:02:37;10.10;90.60
25352;DHT22;13304;48.464;8.712;2024-03-06T15:05:03;10.10;90.60
25352;DHT22;13304;48.464;8.712;2024-03-06T15:07:29;10.10;90.70
25352;DHT22;13304;48.464;8.712;2024-03-06T15:09:55;10.00;90.70
25352;DHT22;13304;48.464;8.712;2024-03-06T15:12:23;10.10;90.70
25352;DHT22;13304;48.464;8.712;2024-03-06T15:14:48;10.10;90.60
25352;DHT22;13304;48.464;8.712;2024-03-06T15:17:14;10.10;90.70
25352;DHT22;13304;48.464;8.712;2024-03-06T15:19:40;10.10;90.80
25352;DHT22;13304;48.464;8.712;2024-03-06T15:22:05;10.10;90.80
25352;DHT22;13304;48.464;8.712;2024-03-06T15:24:31;10.00;90.80
25352;DHT22;13304;48.464;8.712;2024-03-06T15:26:57;10.00;90.80
25352;DHT22;13304;48.464;8.712;2024-03-06T15:29:23;10.00;90.80
25352;DHT22;13304;48.464;8.712;2024-03-06T15:31:49;10.00;90.70
25352;DHT22;13304;48.464;8.712;2024-03-06T15:34:14;10.00;90.70
25352;DHT22;13304;48.464;8.712;2024-03-06T15:36:40;10.00;90.70
25352;DHT22;13304;48.464;8.712;2024-03-06T15:39:06;10.00;90.70
25352;DHT22;13304;48.464;8.712;2024-03-06T15:41:32;10.00;90.80
25352;DHT22;13304;48.464;8.712;2024-03-06T15:43:57;10.00;90.80
25352;DHT22;13304;48.464;8.712;2024-03-06T15:46:23;9.90;90.80